sensor_id;sensor_type;location;lat;lon;timestamp;pressure;altitude;pressure_sealevel;temperature;humidity
63097;BME280;49185;42.320;23.198;2023-12-04T00:00:24;95307.53;;;-0.05;100.00
63097;BME280;49185;42.320;23.198;2023-12-04T00:02:50;95307.53;;;-0.05;100.00
63097;BME280;49185;42.320;23.198;2023-12-04T00:05:15;95302.63;;;-0.08;100.00
63097;BME280;49185;42.320;23.198;2023-12-04T00:07:40;95291.38;;;-0.08;100.00
63097;BME280;49185;42.320;23.198;2023-12-04T00:10:06;95303.97;;;-0.12;100.00
63097;BME280;49185;42.320;23.198;2023-12-04T00:12:32;95302.31;;;-0.05;100.00
63097;BME280;49185;42.320;23.198;2023-12-04T00:14:57;95308.19;;;-0.11;100.00
63097;BME280;49185;42.320;23.198;2023-12-04T00:17:22;95313.44;;;-0.11;100.00
63097;BME280;49185;42.320;23.198;2023-12-04T00:19:48;95313.44;;;-0.11;100.00
63097;BME280;49185;42.320;23.198;2023-12-04T00:22:13;95316.88;;;-0.10;100.00
63097;BME280;49185;42.320;23.198;2023-12-04T00:24:38;95316.19;;;-0.04;100.00
63097;BME280;49185;42.320;23.198;2023-12-04T00:27:04;95320.31;;;-0.10;100.00
63097;BME280;49185;42.320;23.198;2023-12-04T00:29:29;95319.94;;;0.02;100.00
63097;BME280;49185;42.320;23.198;2023-12-04T00:31:55;95321.78;;;-0.15;100.00
63097;BME280;49185;42.320;23.198;2023-12-04T00:34:20;95329.47;;;-0.22;100.00
63097;BME280;49185;42.320;23.198;2023-12-04T00:36:46;95326.72;;;-0.29;100.00
63097;BME280;49185;42.320;23.198;2023-12-04T00:39:11;95335.72;;;-0.31;100.00
63097;BME280;49185;42.320;23.198;2023-12-04T00:41:36;95338.97;;;-0.38;100.00
63097;BME280;49185;42.320;23.198;2023-12-04T00:44:02;95337.00;;;-0.35;100.00
63097;BME280;49185;42.320;23.198;2023-12-04T00:46:27;95336.88;;;-0.42;100.00
63097;BME280;49185;42.320;23.198;2023-12-04T00:48:52;95344.72;;;-0.42;100.00
63097;BME280;49185;42.320;23.198;2023-12-04T00:51:18;95344.88;;;-0.52;100.00
63097;BME280;49185;42.320;23.198;2023-12-04T00:53:43;95342.94;;;-0.58;100.00
63097;BME280;49185;42.320;23.198;2023-12-04T00:56:09;95351.22;;;-0.71;100.00
63097;BME280;49185;42.320;23.198;2023-12-04T00:58:34;95356.31;;;-0.78;100.00
63097;BME280;49185;42.320;23.198;2023-12-04T01:01:00;95356.13;;;-0.84;100.00
63097;BME280;49185;42.320;23.198;2023-12-04T01:03:25;95357.44;;;-0.88;100.00
63097;BME280;49185;42.320;23.198;2023-12-04T01:05:50;95364.94;;;-0.93;100.00
63097;BME280;49185;42.320;23.198;2023-12-04T01:08:16;95361.19;;;-0.99;100.00
63097;BME280;49185;42.320;23.198;2023-12-04T01:10:41;95359.72;;;-1.02;100.00
63097;BME280;49185;42.320;23.198;2023-12-04T01:13:07;95358.56;;;-1.07;100.00
63097;BME280;49185;42.320;23.198;2023-12-04T01:15:32;95364.09;;;-1.10;100.00
63097;BME280;49185;42.320;23.198;2023-12-04T01:17:58;95362.94;;;-1.16;100.00
63097;BME280;49185;42.320;23.198;2023-12-04T01:20:23;95357.06;;;-1.18;100.00
63097;BME280;49185;42.320;23.198;2023-12-04T01:22:49;95360.16;;;-1.31;100.00
63097;BME280;49185;42.320;23.198;2023-12-04T01:25:14;95363.06;;;-1.34;100.00
63097;BME280;49185;42.320;23.198;2023-12-04T01:27:39;95365.84;;;-1.36;100.00
63097;BME280;49185;42.320;23.198;2023-12-04T01:30:06;95357.31;;;-1.46;100.00
63097;BME280;49185;42.320;23.198;2023-12-04T01:32:32;95367.91;;;-1.47;100.00
63097;BME280;49185;42.320;23.198;2023-12-04T01:34:57;95368.25;;;-1.42;100.00
63097;BME280;49185;42.320;23.198;2023-12-04T01:37:22;95365.94;;;-1.45;100.00
63097;BME280;49185;42.320;23.198;2023-12-04T01:39:48;95371.34;;;-1.39;100.00
63097;BME280;49185;42.320;23.198;2023-12-04T01:42:13;95376.56;;;-1.47;100.00
63097;BME280;49185;42.320;23.198;2023-12-04T01:44:38;95382.47;;;-1.37;100.00
63097;BME280;49185;42.320;23.198;2023-12-04T01:47:04;95375.94;;;-1.41;100.00
63097;BME280;49185;42.320;23.198;2023-12-04T01:49:30;95385.06;;;-1.45;100.00
63097;BME280;49185;42.320;23.198;2023-12-04T01:51:56;95378.47;;;-1.57;100.00
63097;BME280;49185;42.320;23.198;2023-12-04T01:54:22;95374.38;;;-1.60;100.00
63097;BME280;49185;42.320;23.198;2023-12-04T01:56:48;95373.22;;;-1.65;100.00
63097;BME280;49185;42.320;23.198;2023-12-04T01:59:14;95381.34;;;-1.68;100.00
63097;BME280;49185;42.320;23.198;2023-12-04T02:01:40;95381.69;;;-1.72;100.00
63097;BME280;49185;42.320;23.198;2023-12-04T02:04:06;95386.03;;;-1.80;100.00
63097;BME280;49185;42.320;23.198;2023-12-04T02:06:31;95381.63;;;-1.80;100.00
63097;BME280;49185;42.320;23.198;2023-12-04T02:08:57;95386.03;;;-1.80;100.00
63097;BME280;49185;42.320;23.198;2023-12-04T02:11:22;95383.75;;;-1.83;100.00
63097;BME280;49185;42.320;23.198;2023-12-04T02:13:47;95382.94;;;-1.76;100.00
63097;BME280;49185;42.320;23.198;2023-12-04T02:16:14;95393.59;;;-1.69;100.00
63097;BME280;49185;42.320;23.198;2023-12-04T02:18:42;95393.59;;;-1.69;100.00
63097;BME280;49185;42.320;23.198;2023-12-04T02:21:08;95396.19;;;-1.69;100.00
63097;BME280;49185;42.320;23.198;2023-12-04T02:23:34;95390.63;;;-1.74;100.00
63097;BME280;49185;42.320;23.198;2023-12-04T02:26:03;95399.75;;;-1.78;100.00
63097;BME280;49185;42.320;23.198;2023-12-04T02:28:33;95405.63;;;-1.76;100.00
63097;BME280;49185;42.320;23.198;2023-12-04T02:31:01;95403.16;;;-1.78;100.00
63097;BME280;49185;42.320;23.198;2023-12-04T02:33:28;95411.91;;;-1.87;100.00
63097;BME280;49185;42.320;23.198;2023-12-04T02:35:55;95410.78;;;-1.84;100.00
63097;BME280;49185;42.320;23.198;2023-12-04T02:38:21;95404.91;;;-1.86;100.00
63097;BME280;49185;42.320;23.198;2023-12-04T02:40:47;95414.81;;;-1.90;100.00
63097;BME280;49185;42.320;23.198;2023-12-04T02:43:12;95402.78;;;-1.91;100.00
63097;BME280;49185;42.320;23.198;2023-12-04T02:45:38;95409.09;;;-1.94;100.00
63097;BME280;49185;42.320;23.198;2023-12-04T02:48:03;95410.09;;;-1.95;100.00
63097;BME280;49185;42.320;23.198;2023-12-04T02:50:29;95407.78;;;-1.98;100.00
63097;BME280;49185;42.320;23.198;2023-12-04T02:52:54;95409.06;;;-2.02;100.00
63097;BME280;49185;42.320;23.198;2023-12-04T02:55:20;95406.09;;;-2.07;100.00
63097;BME280;49185;42.320;23.198;2023-12-04T02:57:45;95413.41;;;-2.11;100.00
63097;BME280;49185;42.320;23.198;2023-12-04T03:00:11;95412.13;;;-2.06;100.00
63097;BME280;49185;42.320;23.198;2023-12-04T03:02:36;95415.59;;;-1.98;100.00
63097;BME280;49185;42.320;23.198;2023-12-04T03:05:01;95421.63;;;-1.97;100.00
63097;BME280;49185;42.320;23.198;2023-12-04T03:07:27;95426.19;;;-1.99;100.00
63097;BME280;49185;42.320;23.198;2023-12-04T03:09:52;95426.78;;;-2.05;100.00
63097;BME280;49185;42.320;23.198;2023-12-04T03:12:18;95429.31;;;-1.96;100.00
63097;BME280;49185;42.320;23.198;2023-12-04T03:14:43;95433.13;;;-2.08;100.00
63097;BME280;49185;42.320;23.198;2023-12-04T03:17:09;95432.78;;;-2.13;100.00
63097;BME280;49185;42.320;23.198;2023-12-04T03:19:34;95431.81;;;-2.12;100.00
63097;BME280;49185;42.320;23.198;2023-12-04T03:22:00;95435.22;;;-2.12;100.00
63097;BME280;49185;42.320;23.198;2023-12-04T03:24:26;95434.47;;;-2.04;100.00
63097;BME280;49185;42.320;23.198;2023-12-04T03:26:51;95435.88;;;-2.10;100.00
63097;BME280;49185;42.320;23.198;2023-12-04T03:29:17;95438.72;;;-2.03;100.00
63097;BME280;49185;42.320;23.198;2023-12-04T03:31:42;95446.03;;;-2.06;100.00
63097;BME280;49185;42.320;23.198;2023-12-04T03:34:07;95441.31;;;-2.03;100.00
63097;BME280;49185;42.320;23.198;2023-12-04T03:36:33;95444.28;;;-1.98;100.00
63097;BME280;49185;42.320;23.198;2023-12-04T03:38:58;95444.44;;;-1.99;100.00
63097;BME280;49185;42.320;23.198;2023-12-04T03:41:24;95441.53;;;-1.96;100.00
63097;BME280;49185;42.320;23.198;2023-12-04T03:43:49;95444.16;;;-1.88;100.00
63097;BME280;49185;42.320;23.198;2023-12-04T03:46:14;95442.63;;;-1.99;100.00
63097;BME280;49185;42.320;23.198;2023-12-04T03:48:40;95452.19;;;-2.07;100.00
63097;BME280;49185;42.320;23.198;2023-12-04T03:51:05;95452.97;;;-2.15;100.00
63097;BME280;49185;42.320;23.198;2023-12-04T03:53:31;95450.59;;;-2.26;100.00
63097;BME280;49185;42.320;23.198;2023-12-04T03:55:58;95450.91;;;-2.30;100.00
63097;BME280;49185;42.320;23.198;2023-12-04T03:58:24;95456.03;;;-2.38;100.00
63097;BME280;49185;42.320;23.198;2023-12-04T04:00:49;95453.38;;;-2.46;100.00
63097;BME280;49185;42.320;23.198;2023-12-04T04:03:15;95452.63;;;-2.38;100.00
63097;BME280;49185;42.320;23.198;2023-12-04T04:05:40;95459.59;;;-2.21;100.00
63097;BME280;49185;42.320;23.198;2023-12-04T04:08:06;95454.69;;;-2.24;100.00
63097;BME280;49185;42.320;23.198;2023-12-04T04:10:31;95456.63;;;-2.26;100.00
63097;BME280;49185;42.320;23.198;2023-12-04T04:12:56;95462.94;;;-2.29;100.00
63097;BME280;49185;42.320;23.198;2023-12-04T04:15:22;95469.44;;;-2.33;100.00
63097;BME280;49185;42.320;23.198;2023-12-04T04:17:47;95454.78;;;-2.34;100.00
63097;BME280;49185;42.320;23.198;2023-12-04T04:20:13;95465.50;;;-2.37;100.00
63097;BME280;49185;42.320;23.198;2023-12-04T04:22:38;95465.19;;;-2.52;100.00
63097;BME280;49185;42.320;23.198;2023-12-04T04:25:07;95471.16;;;-2.59;100.00
63097;BME280;49185;42.320;23.198;2023-12-04T04:27:33;95469.38;;;-2.59;100.00
63097;BME280;49185;42.320;23.198;2023-12-04T04:29:59;95467.59;;;-2.58;100.00
63097;BME280;49185;42.320;23.198;2023-12-04T04:32:25;95474.72;;;-2.60;100.00
63097;BME280;49185;42.320;23.198;2023-12-04T04:34:50;95472.94;;;-2.42;100.00
63097;BME280;49185;42.320;23.198;2023-12-04T04:37:16;95480.09;;;-2.44;100.00
63097;BME280;49185;42.320;23.198;2023-12-04T04:39:41;95483.94;;;-2.48;100.00
63097;BME280;49185;42.320;23.198;2023-12-04T04:42:07;95481.94;;;-2.54;100.00
63097;BME280;49185;42.320;23.198;2023-12-04T04:44:32;95484.41;;;-2.53;100.00
63097;BME280;49185;42.320;23.198;2023-12-04T04:46:57;95491.09;;;-2.50;100.00
63097;BME280;49185;42.320;23.198;2023-12-04T04:49:23;95494.69;;;-2.51;100.00
63097;BME280;49185;42.320;23.198;2023-12-04T04:51:48;95496.84;;;-2.46;100.00
63097;BME280;49185;42.320;23.198;2023-12-04T04:54:14;95497.34;;;-2.43;100.00
63097;BME280;49185;42.320;23.198;2023-12-04T04:56:39;95502.03;;;-2.46;100.00
63097;BME280;49185;42.320;23.198;2023-12-04T04:59:04;95515.97;;;-2.38;100.00
63097;BME280;49185;42.320;23.198;2023-12-04T05:01:30;95513.16;;;-2.26;100.00
63097;BME280;49185;42.320;23.198;2023-12-04T05:03:55;95521.25;;;-2.30;100.00
63097;BME280;49185;42.320;23.198;2023-12-04T05:06:20;95520.72;;;-2.15;100.00
63097;BME280;49185;42.320;23.198;2023-12-04T05:08:46;95523.94;;;-2.03;100.00
63097;BME280;49185;42.320;23.198;2023-12-04T05:11:14;95530.47;;;-1.99;100.00
63097;BME280;49185;42.320;23.198;2023-12-04T05:13:40;95533.91;;;-1.99;100.00
63097;BME280;49185;42.320;23.198;2023-12-04T05:16:05;95532.94;;;-1.98;100.00
63097;BME280;49185;42.320;23.198;2023-12-04T05:18:31;95527.50;;;-2.04;100.00
63097;BME280;49185;42.320;23.198;2023-12-04T05:20:56;95532.28;;;-2.00;100.00
63097;BME280;49185;42.320;23.198;2023-12-04T05:23:22;95538.28;;;-1.99;100.00
63097;BME280;49185;42.320;23.198;2023-12-04T05:25:47;95534.88;;;-2.00;100.00
63097;BME280;49185;42.320;23.198;2023-12-04T05:28:12;95537.41;;;-2.08;100.00
63097;BME280;49185;42.320;23.198;2023-12-04T05:30:38;95542.47;;;-2.06;100.00
63097;BME280;49185;42.320;23.198;2023-12-04T05:33:03;95534.28;;;-2.12;100.00
63097;BME280;49185;42.320;23.198;2023-12-04T05:35:28;95527.28;;;-2.11;100.00
63097;BME280;49185;42.320;23.198;2023-12-04T05:37:54;95535.75;;;-1.91;100.00
63097;BME280;49185;42.320;23.198;2023-12-04T05:40:19;95541.06;;;-2.01;100.00
63097;BME280;49185;42.320;23.198;2023-12-04T05:42:45;95547.31;;;-1.94;100.00
63097;BME280;49185;42.320;23.198;2023-12-04T05:45:10;95545.16;;;-1.98;100.00
63097;BME280;49185;42.320;23.198;2023-12-04T05:47:35;95537.00;;;-1.95;100.00
63097;BME280;49185;42.320;23.198;2023-12-04T05:50:01;95541.56;;;-1.97;100.00
63097;BME280;49185;42.320;23.198;2023-12-04T05:52:26;95538.75;;;-2.04;100.00
63097;BME280;49185;42.320;23.198;2023-12-04T05:54:52;95538.69;;;-2.12;100.00
63097;BME280;49185;42.320;23.198;2023-12-04T05:57:17;95540.63;;;-2.14;100.00
63097;BME280;49185;42.320;23.198;2023-12-04T05:59:43;95546.78;;;-2.15;100.00
63097;BME280;49185;42.320;23.198;2023-12-04T06:02:08;95549.50;;;-2.07;100.00
63097;BME280;49185;42.320;23.198;2023-12-04T06:04:34;95543.25;;;-2.14;100.00
63097;BME280;49185;42.320;23.198;2023-12-04T06:06:59;95538.59;;;-2.20;100.00
63097;BME280;49185;42.320;23.198;2023-12-04T06:09:25;95542.34;;;-2.23;100.00
63097;BME280;49185;42.320;23.198;2023-12-04T06:11:50;95545.63;;;-2.21;100.00
63097;BME280;49185;42.320;23.198;2023-12-04T06:14:16;95550.97;;;-2.22;100.00
63097;BME280;49185;42.320;23.198;2023-12-04T06:16:41;95557.47;;;-2.26;100.00
63097;BME280;49185;42.320;23.198;2023-12-04T06:19:07;95552.81;;;-2.33;100.00
63097;BME280;49185;42.320;23.198;2023-12-04T06:21:32;95555.44;;;-2.33;100.00
63097;BME280;49185;42.320;23.198;2023-12-04T06:23:58;95554.09;;;-2.37;100.00
63097;BME280;49185;42.320;23.198;2023-12-04T06:26:24;95556.84;;;-2.38;100.00
63097;BME280;49185;42.320;23.198;2023-12-04T06:28:49;95553.81;;;-2.34;100.00
63097;BME280;49185;42.320;23.198;2023-12-04T06:31:15;95561.41;;;-2.22;100.00
63097;BME280;49185;42.320;23.198;2023-12-04T06:33:41;95559.75;;;-1.87;100.00
63097;BME280;49185;42.320;23.198;2023-12-04T06:36:07;95553.13;;;-1.56;100.00
63097;BME280;49185;42.320;23.198;2023-12-04T06:38:33;95561.22;;;-1.15;100.00
63097;BME280;49185;42.320;23.198;2023-12-04T06:41:03;95552.25;;;-0.78;100.00
63097;BME280;49185;42.320;23.198;2023-12-04T06:43:28;95550.41;;;-0.18;100.00
63097;BME280;49185;42.320;23.198;2023-12-04T06:45:54;95553.69;;;0.58;100.00
63097;BME280;49185;42.320;23.198;2023-12-04T06:48:20;95549.00;;;1.09;100.00
63097;BME280;49185;42.320;23.198;2023-12-04T06:50:45;95555.94;;;1.96;99.50
63097;BME280;49185;42.320;23.198;2023-12-04T06:53:11;95556.16;;;2.71;94.06
63097;BME280;49185;42.320;23.198;2023-12-04T06:55:36;95568.31;;;2.57;93.93
63097;BME280;49185;42.320;23.198;2023-12-04T06:58:01;95555.25;;;2.63;92.43
63097;BME280;49185;42.320;23.198;2023-12-04T07:00:27;95566.09;;;2.98;84.52
63097;BME280;49185;42.320;23.198;2023-12-04T07:02:52;95562.28;;;3.31;86.58
63097;BME280;49185;42.320;23.198;2023-12-04T07:05:19;95571.25;;;3.88;82.54
63097;BME280;49185;42.320;23.198;2023-12-04T07:07:44;95580.06;;;3.95;81.00
63097;BME280;49185;42.320;23.198;2023-12-04T07:10:10;95573.06;;;3.87;79.91
63097;BME280;49185;42.320;23.198;2023-12-04T07:12:35;95572.00;;;3.82;81.85
63097;BME280;49185;42.320;23.198;2023-12-04T07:15:00;95578.19;;;2.70;86.26
63097;BME280;49185;42.320;23.198;2023-12-04T07:17:26;95579.69;;;2.26;89.63
63097;BME280;49185;42.320;23.198;2023-12-04T07:19:51;95577.47;;;1.60;95.58
63097;BME280;49185;42.320;23.198;2023-12-04T07:22:17;95574.28;;;0.86;100.00
63097;BME280;49185;42.320;23.198;2023-12-04T07:24:42;95575.00;;;0.30;100.00
63097;BME280;49185;42.320;23.198;2023-12-04T07:27:07;95570.88;;;0.69;100.00
63097;BME280;49185;42.320;23.198;2023-12-04T07:29:33;95567.63;;;1.23;100.00
63097;BME280;49185;42.320;23.198;2023-12-04T07:31:58;95568.41;;;1.71;100.00
63097;BME280;49185;42.320;23.198;2023-12-04T07:34:24;95571.19;;;2.01;100.00
63097;BME280;49185;42.320;23.198;2023-12-04T07:36:49;95573.72;;;2.55;97.60
63097;BME280;49185;42.320;23.198;2023-12-04T07:39:14;95571.19;;;2.01;94.99
63097;BME280;49185;42.320;23.198;2023-12-04T07:41:40;95580.16;;;2.30;93.64
63097;BME280;49185;42.320;23.198;2023-12-04T07:44:05;95579.63;;;2.57;92.10
63097;BME280;49185;42.320;23.198;2023-12-04T07:46:31;95577.19;;;2.71;90.51
63097;BME280;49185;42.320;23.198;2023-12-04T07:48:56;95576.13;;;2.80;90.42
63097;BME280;49185;42.320;23.198;2023-12-04T07:51:21;95567.50;;;2.71;90.84
63097;BME280;49185;42.320;23.198;2023-12-04T07:53:47;95578.94;;;2.93;89.58
63097;BME280;49185;42.320;23.198;2023-12-04T07:56:12;95578.78;;;3.10;85.76
63097;BME280;49185;42.320;23.198;2023-12-04T07:58:38;95565.03;;;3.22;85.94
63097;BME280;49185;42.320;23.198;2023-12-04T08:01:03;95571.16;;;3.96;83.15
63097;BME280;49185;42.320;23.198;2023-12-04T08:03:29;95570.03;;;3.69;78.29
63097;BME280;49185;42.320;23.198;2023-12-04T08:05:54;95576.50;;;4.03;80.18
63097;BME280;49185;42.320;23.198;2023-12-04T08:08:20;95583.59;;;4.02;73.51
63097;BME280;49185;42.320;23.198;2023-12-04T08:10:45;95585.25;;;5.03;71.84
63097;BME280;49185;42.320;23.198;2023-12-04T08:13:10;95586.22;;;4.67;69.54
63097;BME280;49185;42.320;23.198;2023-12-04T08:15:36;95578.16;;;4.47;71.80
63097;BME280;49185;42.320;23.198;2023-12-04T08:18:01;95585.47;;;4.73;71.75
63097;BME280;49185;42.320;23.198;2023-12-04T08:20:27;95588.59;;;4.62;72.66
63097;BME280;49185;42.320;23.198;2023-12-04T08:22:52;95596.25;;;4.78;69.76
63097;BME280;49185;42.320;23.198;2023-12-04T08:25:18;95594.06;;;4.82;70.04
63097;BME280;49185;42.320;23.198;2023-12-04T08:27:43;95585.47;;;4.51;69.93
63097;BME280;49185;42.320;23.198;2023-12-04T08:30:09;95594.13;;;4.67;66.12
63097;BME280;49185;42.320;23.198;2023-12-04T08:32:34;95591.88;;;4.42;66.92
63097;BME280;49185;42.320;23.198;2023-12-04T08:35:00;95599.38;;;4.67;69.75
63097;BME280;49185;42.320;23.198;2023-12-04T08:37:25;95602.84;;;4.67;63.64
63097;BME280;49185;42.320;23.198;2023-12-04T08:39:51;95595.53;;;4.41;63.87
63097;BME280;49185;42.320;23.198;2023-12-04T08:42:16;95595.94;;;4.66;65.87
63097;BME280;49185;42.320;23.198;2023-12-04T08:44:42;95587.81;;;4.18;69.53
63097;BME280;49185;42.320;23.198;2023-12-04T08:47:07;95599.38;;;4.67;69.48
63097;BME280;49185;42.320;23.198;2023-12-04T08:49:33;95599.19;;;4.68;70.04
63097;BME280;49185;42.320;23.198;2023-12-04T08:51:58;95606.16;;;4.76;68.24
63097;BME280;49185;42.320;23.198;2023-12-04T08:54:24;95598.38;;;4.25;69.19
63097;BME280;49185;42.320;23.198;2023-12-04T08:56:49;95596.25;;;4.56;75.75
63097;BME280;49185;42.320;23.198;2023-12-04T08:59:15;95599.31;;;4.60;65.62
63097;BME280;49185;42.320;23.198;2023-12-04T09:01:40;95600.91;;;4.33;68.64
63097;BME280;49185;42.320;23.198;2023-12-04T09:04:07;95599.28;;;4.53;71.09
63097;BME280;49185;42.320;23.198;2023-12-04T09:06:33;95597.88;;;4.79;67.83
63097;BME280;49185;42.320;23.198;2023-12-04T09:08:58;95593.94;;;4.25;70.39
63097;BME280;49185;42.320;23.198;2023-12-04T09:11:24;95595.13;;;4.44;69.05
63097;BME280;49185;42.320;23.198;2023-12-04T09:13:49;95593.25;;;4.60;73.48
63097;BME280;49185;42.320;23.198;2023-12-04T09:16:15;95587.91;;;5.03;69.52
63097;BME280;49185;42.320;23.198;2023-12-04T09:18:40;95581.38;;;4.99;68.74
63097;BME280;49185;42.320;23.198;2023-12-04T09:21:06;95586.88;;;4.75;66.50
63097;BME280;49185;42.320;23.198;2023-12-04T09:23:31;95575.13;;;4.28;70.20
63097;BME280;49185;42.320;23.198;2023-12-04T09:25:56;95577.44;;;3.80;71.43
63097;BME280;49185;42.320;23.198;2023-12-04T09:28:22;95570.25;;;3.89;68.45
63097;BME280;49185;42.320;23.198;2023-12-04T09:30:47;95559.47;;;3.84;72.83
63097;BME280;49185;42.320;23.198;2023-12-04T09:33:13;95548.94;;;3.84;71.19
63097;BME280;49185;42.320;23.198;2023-12-04T09:35:38;95558.50;;;3.85;70.42
63097;BME280;49185;42.320;23.198;2023-12-04T09:38:04;95553.50;;;3.75;67.92
63097;BME280;49185;42.320;23.198;2023-12-04T09:40:29;95552.97;;;3.79;71.42
63097;BME280;49185;42.320;23.198;2023-12-04T09:42:55;95556.31;;;3.73;70.66
63097;BME280;49185;42.320;23.198;2023-12-04T09:45:20;95558.81;;;3.60;72.28
63097;BME280;49185;42.320;23.198;2023-12-04T09:47:48;95550.28;;;3.58;75.28
63097;BME280;49185;42.320;23.198;2023-12-04T09:50:15;95551.63;;;3.69;73.63
63097;BME280;49185;42.320;23.198;2023-12-04T09:52:41;95552.34;;;3.77;70.85
63097;BME280;49185;42.320;23.198;2023-12-04T09:55:06;95548.69;;;3.78;75.46
63097;BME280;49185;42.320;23.198;2023-12-04T09:57:32;95551.03;;;4.10;73.16
63097;BME280;49185;42.320;23.198;2023-12-04T10:00:00;95549.09;;;4.18;71.73
63097;BME280;49185;42.320;23.198;2023-12-04T10:02:26;95542.69;;;3.85;73.21
63097;BME280;49185;42.320;23.198;2023-12-04T10:04:52;95539.47;;;3.89;72.72
63097;BME280;49185;42.320;23.198;2023-12-04T10:07:17;95535.00;;;4.05;74.33
63097;BME280;49185;42.320;23.198;2023-12-04T10:09:43;95535.09;;;3.96;71.38
63097;BME280;49185;42.320;23.198;2023-12-04T10:12:09;95536.56;;;3.99;72.11
63097;BME280;49185;42.320;23.198;2023-12-04T10:14:34;95535.31;;;4.16;73.52
63097;BME280;49185;42.320;23.198;2023-12-04T10:17:13;95532.97;;;4.07;74.33
63097;BME280;49185;42.320;23.198;2023-12-04T10:19:39;95528.09;;;4.25;72.88
63097;BME280;49185;42.320;23.198;2023-12-04T10:22:08;95530.78;;;4.10;72.42
63097;BME280;49185;42.320;23.198;2023-12-04T10:24:34;95527.16;;;4.33;71.24
63097;BME280;49185;42.320;23.198;2023-12-04T10:27:01;95522.88;;;4.32;75.01
63097;BME280;49185;42.320;23.198;2023-12-04T10:29:27;95516.81;;;4.10;74.28
63097;BME280;49185;42.320;23.198;2023-12-04T10:31:53;95514.25;;;4.16;75.74
63097;BME280;49185;42.320;23.198;2023-12-04T10:34:18;95518.38;;;4.04;72.98
63097;BME280;49185;42.320;23.198;2023-12-04T10:36:45;95512.34;;;4.53;73.69
63097;BME280;49185;42.320;23.198;2023-12-04T10:39:11;95510.13;;;4.57;73.90
63097;BME280;49185;42.320;23.198;2023-12-04T10:41:37;95512.53;;;4.52;75.24
63097;BME280;49185;42.320;23.198;2023-12-04T10:44:02;95516.53;;;4.48;72.20
63097;BME280;49185;42.320;23.198;2023-12-04T10:46:28;95521.13;;;4.67;72.91
63097;BME280;49185;42.320;23.198;2023-12-04T10:48:53;95506.16;;;4.74;77.21
63097;BME280;49185;42.320;23.198;2023-12-04T10:51:20;95507.56;;;4.99;72.63
63097;BME280;49185;42.320;23.198;2023-12-04T10:53:45;95501.34;;;5.13;71.62
63097;BME280;49185;42.320;23.198;2023-12-04T10:56:17;95496.44;;;5.03;76.08
63097;BME280;49185;42.320;23.198;2023-12-04T10:58:48;95504.88;;;4.92;74.08
63097;BME280;49185;42.320;23.198;2023-12-04T11:01:16;95504.81;;;4.79;75.08
63097;BME280;49185;42.320;23.198;2023-12-04T11:03:52;95494.50;;;4.90;74.26
63097;BME280;49185;42.320;23.198;2023-12-04T11:06:20;95497.78;;;4.92;76.04
63097;BME280;49185;42.320;23.198;2023-12-04T11:08:48;95497.75;;;5.21;73.95
63097;BME280;49185;42.320;23.198;2023-12-04T11:11:15;95496.63;;;5.02;71.99
63097;BME280;49185;42.320;23.198;2023-12-04T11:13:49;95494.84;;;5.09;74.49
63097;BME280;49185;42.320;23.198;2023-12-04T11:16:22;95494.72;;;5.30;70.78
63097;BME280;49185;42.320;23.198;2023-12-04T11:18:51;95489.09;;;5.47;72.62
63097;BME280;49185;42.320;23.198;2023-12-04T11:21:20;95488.44;;;5.31;71.20
63097;BME280;49185;42.320;23.198;2023-12-04T11:23:46;95480.34;;;5.33;74.54
63097;BME280;49185;42.320;23.198;2023-12-04T11:26:12;95478.25;;;5.22;74.19
63097;BME280;49185;42.320;23.198;2023-12-04T11:28:38;95480.63;;;5.58;73.46
63097;BME280;49185;42.320;23.198;2023-12-04T11:31:04;95477.91;;;6.00;71.06
63097;BME280;49185;42.320;23.198;2023-12-04T11:33:37;95476.63;;;5.76;74.16
63097;BME280;49185;42.320;23.198;2023-12-04T11:36:11;95480.78;;;6.12;73.32
63097;BME280;49185;42.320;23.198;2023-12-04T11:38:38;95478.69;;;5.94;73.10
63097;BME280;49185;42.320;23.198;2023-12-04T11:41:21;95473.44;;;6.07;73.94
63097;BME280;49185;42.320;23.198;2023-12-04T11:43:47;95472.28;;;5.55;74.26
63097;BME280;49185;42.320;23.198;2023-12-04T11:46:23;95463.88;;;5.31;76.44
63097;BME280;49185;42.320;23.198;2023-12-04T11:49:26;95468.25;;;5.10;74.70
63097;BME280;49185;42.320;23.198;2023-12-04T11:51:52;95457.19;;;4.87;76.40
63097;BME280;49185;42.320;23.198;2023-12-04T11:54:19;95453.41;;;5.51;74.48
63097;BME280;49185;42.320;23.198;2023-12-04T11:59:25;95444.25;;;5.54;75.98
63097;BME280;49185;42.320;23.198;2023-12-04T12:01:54;95436.03;;;6.57;72.08
63097;BME280;49185;42.320;23.198;2023-12-04T12:04:20;95437.66;;;6.51;71.07
63097;BME280;49185;42.320;23.198;2023-12-04T12:06:45;95438.00;;;6.95;72.05
63097;BME280;49185;42.320;23.198;2023-12-04T12:09:11;95430.53;;;6.65;71.74
63097;BME280;49185;42.320;23.198;2023-12-04T12:11:37;95428.13;;;6.30;72.30
63097;BME280;49185;42.320;23.198;2023-12-04T12:14:02;95431.13;;;5.87;75.77
63097;BME280;49185;42.320;23.198;2023-12-04T12:16:28;95427.91;;;6.25;74.09
63097;BME280;49185;42.320;23.198;2023-12-04T12:18:53;95417.16;;;6.40;72.57
63097;BME280;49185;42.320;23.198;2023-12-04T12:21:19;95414.66;;;5.78;78.75
63097;BME280;49185;42.320;23.198;2023-12-04T12:23:44;95416.03;;;5.47;80.84
63097;BME280;49185;42.320;23.198;2023-12-04T12:26:11;95413.66;;;5.79;77.65
63097;BME280;49185;42.320;23.198;2023-12-04T12:28:36;95406.34;;;5.61;79.58
63097;BME280;49185;42.320;23.198;2023-12-04T12:31:03;95407.06;;;5.42;81.38
63097;BME280;49185;42.320;23.198;2023-12-04T12:33:28;95403.34;;;5.16;80.74
63097;BME280;49185;42.320;23.198;2023-12-04T12:35:54;95398.63;;;4.98;82.62
63097;BME280;49185;42.320;23.198;2023-12-04T12:38:19;95392.97;;;4.60;85.48
63097;BME280;49185;42.320;23.198;2023-12-04T12:40:45;95395.31;;;4.48;84.50
63097;BME280;49185;42.320;23.198;2023-12-04T12:43:10;95397.66;;;4.29;85.63
63097;BME280;49185;42.320;23.198;2023-12-04T12:45:43;95391.16;;;4.32;83.44